High Level Airport
CYOJ : now visible

Airfield :











YOU CAN JOIN US ON...

 
LOGIN :

Register | Disclaimer

   EN    FR    IT 

 









Legend :    VFR   Marginal VFR   IFR   Intensive IFR   Very Intensive IFR
Visi :
Ceiling :
>= 8 km
>= 3000ft
5 to 8 km
1000 to 3000 ft
1500m to 5 km
500 to 1000 ft
800 to 1500m
200 to 500 ft
< 800m
< 200 ft
Symbols :   Thunderstorms  Fog  Heavy snow  Heavy precipitations  Wind > 20 kt






- Airport Elevation : 1110 ft
- IATA code : YOJ


CYOJ - High Level

CURRENT METAR :
  • 291100Z AUTO 00000KT 9SM CLR M20/M22 A2973 RMK SLP101

EXPIRED METARs :
  • 291000Z AUTO VRB02KT 9SM CLR M19/M21 A2975 RMK SLP108
  • 290900Z AUTO VRB02KT 9SM CLR M20/M22 A2979 RMK SLP122

TAF TAF CYOJ
Valid from the 29 at 07:00 until the 29 at 19:00 UTC


290640Z 2907/2919 VRB03KT P6SM FEW004
TEMPO 2908/2916 2SM BR BKN004
PROB40 2910/2916 1/2SM FZFG VV002
FM291600 14012KT P6SM FEW006 SCT060 OVC120
PROB30 2916/2919 BKN006 OVC060 RMK FCST BASED ON AUTO OBS. NXT FCST BY 291300Z



MET'MAP, your aeronautical weather chart ! - Copyright ORBIFLY December 2007 - Disclaimer

ORBIFLY MET'MAP TEAM :

Programming & Development : Alexandra Zaïnal
Concept & original design : Baudouin d'Aumeries
Assistance for programming : Marc-Olivier Méhu
Technical & hardware support : Manuel Goepfert

Contact : metmap@orbifly.com




SOURCES & CREDITS :

   NOAA       Earth
Advisory